sensor_id;sensor_type;location;lat;lon;timestamp;pressure;altitude;pressure_sealevel;temperature;humidity
15487;BME280;7845;53.698;10.078;2023-01-16T00:01:14;99246.72;;;6.84;100.00
15487;BME280;7845;53.698;10.078;2023-01-16T00:03:40;99238.84;;;6.90;100.00
15487;BME280;7845;53.698;10.078;2023-01-16T00:06:05;99240.44;;;6.99;100.00
15487;BME280;7845;53.698;10.078;2023-01-16T00:08:31;99240.50;;;6.96;100.00
15487;BME280;7845;53.698;10.078;2023-01-16T00:10:58;99245.66;;;6.97;100.00
15487;BME280;7845;53.698;10.078;2023-01-16T00:13:23;99249.16;;;6.93;100.00
15487;BME280;7845;53.698;10.078;2023-01-16T00:15:50;99243.97;;;6.93;100.00
15487;BME280;7845;53.698;10.078;2023-01-16T00:18:16;99237.00;;;6.97;100.00
15487;BME280;7845;53.698;10.078;2023-01-16T00:20:42;99238.03;;;6.88;100.00
15487;BME280;7845;53.698;10.078;2023-01-16T00:23:10;99232.78;;;6.91;100.00
15487;BME280;7845;53.698;10.078;2023-01-16T00:25:43;99232.03;;;6.86;100.00
15487;BME280;7845;53.698;10.078;2023-01-16T00:28:10;99227.66;;;6.88;100.00
15487;BME280;7845;53.698;10.078;2023-01-16T00:30:36;99223.28;;;6.90;100.00
15487;BME280;7845;53.698;10.078;2023-01-16T00:33:02;99230.13;;;6.96;100.00
15487;BME280;7845;53.698;10.078;2023-01-16T00:35:27;99216.25;;;6.97;100.00
15487;BME280;7845;53.698;10.078;2023-01-16T00:37:53;99221.44;;;6.97;100.00
15487;BME280;7845;53.698;10.078;2023-01-16T00:40:19;99216.16;;;7.03;100.00
15487;BME280;7845;53.698;10.078;2023-01-16T00:42:45;99212.75;;;6.99;100.00
15487;BME280;7845;53.698;10.078;2023-01-16T00:45:11;99210.94;;;7.04;100.00
15487;BME280;7845;53.698;10.078;2023-01-16T00:47:36;99198.84;;;7.03;100.00
15487;BME280;7845;53.698;10.078;2023-01-16T00:50:02;99205.69;;;7.07;100.00
15487;BME280;7845;53.698;10.078;2023-01-16T00:52:27;99203.09;;;7.07;100.00
15487;BME280;7845;53.698;10.078;2023-01-16T00:54:53;99203.00;;;7.12;100.00
15487;BME280;7845;53.698;10.078;2023-01-16T00:57:18;99198.69;;;7.12;100.00
15487;BME280;7845;53.698;10.078;2023-01-16T00:59:45;99198.69;;;7.11;100.00
15487;BME280;7845;53.698;10.078;2023-01-16T01:02:10;99197.88;;;7.10;100.00
15487;BME280;7845;53.698;10.078;2023-01-16T01:04:36;99201.22;;;7.14;100.00
15487;BME280;7845;53.698;10.078;2023-01-16T01:07:01;99203.75;;;7.17;100.00
15487;BME280;7845;53.698;10.078;2023-01-16T01:09:26;99199.50;;;7.14;100.00
15487;BME280;7845;53.698;10.078;2023-01-16T01:11:52;99196.81;;;7.19;100.00
15487;BME280;7845;53.698;10.078;2023-01-16T01:14:17;99201.16;;;7.18;100.00
15487;BME280;7845;53.698;10.078;2023-01-16T01:16:42;99199.41;;;7.19;100.00
15487;BME280;7845;53.698;10.078;2023-01-16T01:19:08;99197.75;;;7.16;100.00
15487;BME280;7845;53.698;10.078;2023-01-16T01:21:33;99198.63;;;7.14;100.00
15487;BME280;7845;53.698;10.078;2023-01-16T01:23:59;99191.69;;;7.16;100.00
15487;BME280;7845;53.698;10.078;2023-01-16T01:26:24;99190.78;;;7.17;100.00
15487;BME280;7845;53.698;10.078;2023-01-16T01:28:49;99183.88;;;7.17;100.00
15487;BME280;7845;53.698;10.078;2023-01-16T01:31:15;99180.41;;;7.17;100.00
15487;BME280;7845;53.698;10.078;2023-01-16T01:33:41;99177.09;;;7.10;100.00
15487;BME280;7845;53.698;10.078;2023-01-16T01:36:08;99180.47;;;7.14;100.00
15487;BME280;7845;53.698;10.078;2023-01-16T01:38:34;99175.25;;;7.15;100.00
15487;BME280;7845;53.698;10.078;2023-01-16T01:41:00;99168.34;;;7.14;100.00
15487;BME280;7845;53.698;10.078;2023-01-16T01:43:44;99166.75;;;7.09;100.00
15487;BME280;7845;53.698;10.078;2023-01-16T01:46:39;99174.47;;;7.13;100.00
15487;BME280;7845;53.698;10.078;2023-01-16T01:49:27;99165.09;;;7.05;100.00
15487;BME280;7845;53.698;10.078;2023-01-16T01:51:57;99165.06;;;7.06;100.00
15487;BME280;7845;53.698;10.078;2023-01-16T01:54:32;99166.88;;;7.03;100.00
15487;BME280;7845;53.698;10.078;2023-01-16T01:57:07;99169.50;;;7.01;100.00
15487;BME280;7845;53.698;10.078;2023-01-16T01:59:37;99166.00;;;7.02;100.00
15487;BME280;7845;53.698;10.078;2023-01-16T02:02:06;99164.28;;;7.03;100.00
15487;BME280;7845;53.698;10.078;2023-01-16T02:04:36;99161.63;;;7.06;100.00
15487;BME280;7845;53.698;10.078;2023-01-16T02:07:06;99158.09;;;7.10;100.00
15487;BME280;7845;53.698;10.078;2023-01-16T02:09:33;99153.78;;;7.09;100.00
15487;BME280;7845;53.698;10.078;2023-01-16T02:12:06;99149.50;;;7.06;100.00
15487;BME280;7845;53.698;10.078;2023-01-16T02:14:37;99147.72;;;7.08;100.00
15487;BME280;7845;53.698;10.078;2023-01-16T02:36:31;99125.09;;;7.16;100.00
15487;BME280;7845;53.698;10.078;2023-01-16T02:44:25;99124.06;;;7.23;100.00
15487;BME280;7845;53.698;10.078;2023-01-16T02:47:06;99122.34;;;7.24;100.00
15487;BME280;7845;53.698;10.078;2023-01-16T02:49:43;99118.06;;;7.21;100.00
15487;BME280;7845;53.698;10.078;2023-01-16T02:52:40;99116.34;;;7.20;100.00
15487;BME280;7845;53.698;10.078;2023-01-16T02:58:01;99108.53;;;7.22;100.00
15487;BME280;7845;53.698;10.078;2023-01-16T03:00:28;99107.63;;;7.24;100.00
15487;BME280;7845;53.698;10.078;2023-01-16T03:02:54;99108.50;;;7.23;100.00
15487;BME280;7845;53.698;10.078;2023-01-16T03:05:21;99102.44;;;7.23;100.00
15487;BME280;7845;53.698;10.078;2023-01-16T03:10:31;99092.19;;;7.18;100.00
15487;BME280;7845;53.698;10.078;2023-01-16T03:18:50;99082.38;;;6.91;100.00
15487;BME280;7845;53.698;10.078;2023-01-16T03:26:49;99060.75;;;6.92;100.00
15487;BME280;7845;53.698;10.078;2023-01-16T03:29:25;99065.81;;;6.97;100.00
15487;BME280;7845;53.698;10.078;2023-01-16T03:34:30;99062.28;;;7.01;100.00
15487;BME280;7845;53.698;10.078;2023-01-16T03:37:03;99048.34;;;7.05;100.00
15487;BME280;7845;53.698;10.078;2023-01-16T03:39:53;99045.75;;;7.06;100.00
15487;BME280;7845;53.698;10.078;2023-01-16T03:42:24;99034.50;;;7.06;100.00
15487;BME280;7845;53.698;10.078;2023-01-16T03:44:57;99033.69;;;7.04;100.00
15487;BME280;7845;53.698;10.078;2023-01-16T03:47:30;99030.19;;;7.05;100.00
15487;BME280;7845;53.698;10.078;2023-01-16T03:50:03;99034.56;;;7.04;100.00
15487;BME280;7845;53.698;10.078;2023-01-16T03:52:35;99019.81;;;7.05;100.00
15487;BME280;7845;53.698;10.078;2023-01-16T03:58:11;99017.34;;;7.00;100.00
15487;BME280;7845;53.698;10.078;2023-01-16T04:01:08;99008.03;;;6.90;100.00
15487;BME280;7845;53.698;10.078;2023-01-16T04:04:01;99016.78;;;6.86;100.00
15487;BME280;7845;53.698;10.078;2023-01-16T04:06:35;99013.41;;;6.83;100.00
15487;BME280;7845;53.698;10.078;2023-01-16T04:09:08;99010.19;;;6.72;100.00
15487;BME280;7845;53.698;10.078;2023-01-16T04:11:36;99004.81;;;6.81;100.00
15487;BME280;7845;53.698;10.078;2023-01-16T04:14:05;99003.16;;;6.77;100.00
15487;BME280;7845;53.698;10.078;2023-01-16T04:16:33;99006.69;;;6.74;100.00
15487;BME280;7845;53.698;10.078;2023-01-16T04:19:01;98998.03;;;6.74;100.00
15487;BME280;7845;53.698;10.078;2023-01-16T04:21:29;98993.78;;;6.69;100.00
15487;BME280;7845;53.698;10.078;2023-01-16T04:23:57;98988.72;;;6.65;100.00
15487;BME280;7845;53.698;10.078;2023-01-16T04:26:24;98986.13;;;6.65;100.00
15487;BME280;7845;53.698;10.078;2023-01-16T04:28:49;98987.00;;;6.65;100.00
15487;BME280;7845;53.698;10.078;2023-01-16T04:31:24;98980.03;;;6.67;100.00
15487;BME280;7845;53.698;10.078;2023-01-16T04:33:50;98977.38;;;6.71;100.00
15487;BME280;7845;53.698;10.078;2023-01-16T04:36:16;98978.22;;;6.71;100.00
15487;BME280;7845;53.698;10.078;2023-01-16T04:38:41;98973.84;;;6.75;100.00
15487;BME280;7845;53.698;10.078;2023-01-16T04:41:07;98967.81;;;6.73;100.00
15487;BME280;7845;53.698;10.078;2023-01-16T04:43:32;98957.38;;;6.76;100.00
15487;BME280;7845;53.698;10.078;2023-01-16T04:45:57;98962.53;;;6.77;100.00
15487;BME280;7845;53.698;10.078;2023-01-16T04:48:23;98959.88;;;6.80;100.00
15487;BME280;7845;53.698;10.078;2023-01-16T04:50:48;98963.34;;;6.79;100.00
15487;BME280;7845;53.698;10.078;2023-01-16T04:53:14;98952.09;;;6.80;100.00
15487;BME280;7845;53.698;10.078;2023-01-16T04:55:42;98946.84;;;6.83;100.00
15487;BME280;7845;53.698;10.078;2023-01-16T04:58:07;98942.53;;;6.84;100.00
15487;BME280;7845;53.698;10.078;2023-01-16T05:00:32;98937.34;;;6.84;100.00
15487;BME280;7845;53.698;10.078;2023-01-16T05:02:58;98939.94;;;6.84;100.00
15487;BME280;7845;53.698;10.078;2023-01-16T05:05:25;98936.50;;;6.82;100.00
15487;BME280;7845;53.698;10.078;2023-01-16T05:07:50;98920.06;;;6.83;100.00
15487;BME280;7845;53.698;10.078;2023-01-16T05:10:36;98928.66;;;6.85;100.00
15487;BME280;7845;53.698;10.078;2023-01-16T05:13:02;98923.50;;;6.83;100.00
15487;BME280;7845;53.698;10.078;2023-01-16T05:15:27;98933.03;;;6.83;100.00
15487;BME280;7845;53.698;10.078;2023-01-16T05:17:53;98922.72;;;6.80;100.00
15487;BME280;7845;53.698;10.078;2023-01-16T05:20:19;98919.31;;;6.78;100.00
15487;BME280;7845;53.698;10.078;2023-01-16T05:22:45;98906.34;;;6.78;100.00
15487;BME280;7845;53.698;10.078;2023-01-16T05:25:10;98910.69;;;6.77;100.00
15487;BME280;7845;53.698;10.078;2023-01-16T05:27:37;98908.97;;;6.76;100.00
15487;BME280;7845;53.698;10.078;2023-01-16T05:30:02;98913.28;;;6.77;100.00
15487;BME280;7845;53.698;10.078;2023-01-16T05:32:28;98907.25;;;6.75;100.00
15487;BME280;7845;53.698;10.078;2023-01-16T05:34:53;98906.31;;;6.79;100.00
15487;BME280;7845;53.698;10.078;2023-01-16T05:37:18;98902.78;;;6.82;100.00
15487;BME280;7845;53.698;10.078;2023-01-16T05:39:44;98901.06;;;6.82;100.00
15487;BME280;7845;53.698;10.078;2023-01-16T05:42:10;98900.19;;;6.83;100.00
15487;BME280;7845;53.698;10.078;2023-01-16T05:44:47;98900.19;;;6.82;100.00
15487;BME280;7845;53.698;10.078;2023-01-16T05:47:13;98900.25;;;6.80;100.00
15487;BME280;7845;53.698;10.078;2023-01-16T05:49:38;98904.53;;;6.81;100.00
15487;BME280;7845;53.698;10.078;2023-01-16T05:52:03;98899.31;;;6.83;100.00
15487;BME280;7845;53.698;10.078;2023-01-16T05:54:29;98895.00;;;6.83;100.00
15487;BME280;7845;53.698;10.078;2023-01-16T05:56:55;98892.41;;;6.83;100.00
15487;BME280;7845;53.698;10.078;2023-01-16T05:59:21;98892.34;;;6.85;100.00
15487;BME280;7845;53.698;10.078;2023-01-16T06:01:46;98885.47;;;6.84;100.00
15487;BME280;7845;53.698;10.078;2023-01-16T06:04:11;98886.28;;;6.86;100.00
15487;BME280;7845;53.698;10.078;2023-01-16T06:06:37;98881.13;;;6.84;100.00
15487;BME280;7845;53.698;10.078;2023-01-16T06:09:02;98876.06;;;6.80;100.00
15487;BME280;7845;53.698;10.078;2023-01-16T06:11:27;98871.75;;;6.79;100.00
15487;BME280;7845;53.698;10.078;2023-01-16T06:13:53;98873.53;;;6.77;100.00
15487;BME280;7845;53.698;10.078;2023-01-16T06:16:18;98868.34;;;6.77;100.00
15487;BME280;7845;53.698;10.078;2023-01-16T06:18:43;98870.97;;;6.75;100.00
15487;BME280;7845;53.698;10.078;2023-01-16T06:21:09;98869.22;;;6.77;100.00
15487;BME280;7845;53.698;10.078;2023-01-16T06:23:34;98863.19;;;6.75;100.00
15487;BME280;7845;53.698;10.078;2023-01-16T06:26:01;98867.41;;;6.79;100.00
15487;BME280;7845;53.698;10.078;2023-01-16T06:28:28;98857.06;;;6.79;100.00
15487;BME280;7845;53.698;10.078;2023-01-16T06:30:53;98854.47;;;6.79;100.00
15487;BME280;7845;53.698;10.078;2023-01-16T06:33:19;98846.81;;;6.75;100.00
15487;BME280;7845;53.698;10.078;2023-01-16T06:35:44;98847.69;;;6.74;100.00
15487;BME280;7845;53.698;10.078;2023-01-16T06:38:09;98843.50;;;6.66;100.00
15487;BME280;7845;53.698;10.078;2023-01-16T06:40:36;98844.44;;;6.64;100.00
15487;BME280;7845;53.698;10.078;2023-01-16T06:43:01;98844.50;;;6.62;100.00
15487;BME280;7845;53.698;10.078;2023-01-16T06:45:26;98839.31;;;6.61;100.00
15487;BME280;7845;53.698;10.078;2023-01-16T06:47:52;98829.88;;;6.58;100.00
15487;BME280;7845;53.698;10.078;2023-01-16T06:50:19;98831.63;;;6.58;100.00
15487;BME280;7845;53.698;10.078;2023-01-16T06:52:44;98835.94;;;6.59;100.00
15487;BME280;7845;53.698;10.078;2023-01-16T06:55:10;98829.81;;;6.63;100.00
15487;BME280;7845;53.698;10.078;2023-01-16T06:57:36;98829.94;;;6.57;100.00
15487;BME280;7845;53.698;10.078;2023-01-16T07:00:03;98824.63;;;6.61;100.00
15487;BME280;7845;53.698;10.078;2023-01-16T07:02:29;98820.31;;;6.62;100.00
15487;BME280;7845;53.698;10.078;2023-01-16T07:04:56;98833.25;;;6.62;100.00
15487;BME280;7845;53.698;10.078;2023-01-16T07:07:21;98819.38;;;6.64;100.00
15487;BME280;7845;53.698;10.078;2023-01-16T07:09:47;98807.28;;;6.63;100.00
15487;BME280;7845;53.698;10.078;2023-01-16T07:12:12;98808.22;;;6.62;100.00
15487;BME280;7845;53.698;10.078;2023-01-16T07:14:37;98809.88;;;6.63;100.00
15487;BME280;7845;53.698;10.078;2023-01-16T07:17:22;98802.09;;;6.65;100.00
15487;BME280;7845;53.698;10.078;2023-01-16T07:20:09;98809.81;;;6.66;100.00
15487;BME280;7845;53.698;10.078;2023-01-16T07:22:53;98801.38;;;6.58;100.00
15487;BME280;7845;53.698;10.078;2023-01-16T07:25:23;98799.50;;;6.65;100.00
15487;BME280;7845;53.698;10.078;2023-01-16T07:27:50;98800.34;;;6.65;100.00
15487;BME280;7845;53.698;10.078;2023-01-16T07:30:17;98802.03;;;6.68;100.00
15487;BME280;7845;53.698;10.078;2023-01-16T07:32:43;98798.50;;;6.69;100.00
15487;BME280;7845;53.698;10.078;2023-01-16T07:35:09;98789.06;;;6.68;100.00
15487;BME280;7845;53.698;10.078;2023-01-16T07:37:34;98790.78;;;6.67;100.00
15487;BME280;7845;53.698;10.078;2023-01-16T07:40:06;98781.38;;;6.63;100.00
15487;BME280;7845;53.698;10.078;2023-01-16T07:42:32;98784.97;;;6.58;100.00
15487;BME280;7845;53.698;10.078;2023-01-16T07:44:57;98780.00;;;6.49;100.00
15487;BME280;7845;53.698;10.078;2023-01-16T07:47:23;98779.28;;;6.42;100.00
15487;BME280;7845;53.698;10.078;2023-01-16T07:49:48;98770.03;;;6.32;100.00
15487;BME280;7845;53.698;10.078;2023-01-16T07:52:14;98776.16;;;6.28;100.00
15487;BME280;7845;53.698;10.078;2023-01-16T07:54:40;98777.97;;;6.25;100.00
15487;BME280;7845;53.698;10.078;2023-01-16T07:57:06;98774.56;;;6.24;100.00
15487;BME280;7845;53.698;10.078;2023-01-16T07:59:31;98768.41;;;6.28;100.00
15487;BME280;7845;53.698;10.078;2023-01-16T08:01:57;98764.88;;;6.32;100.00
15487;BME280;7845;53.698;10.078;2023-01-16T08:04:22;98758.91;;;6.29;100.00
15487;BME280;7845;53.698;10.078;2023-01-16T08:06:47;98757.09;;;6.31;100.00
15487;BME280;7845;53.698;10.078;2023-01-16T08:09:13;98745.94;;;6.29;100.00
15487;BME280;7845;53.698;10.078;2023-01-16T08:11:38;98746.81;;;6.28;100.00
15487;BME280;7845;53.698;10.078;2023-01-16T08:14:06;98740.81;;;6.27;100.00
15487;BME280;7845;53.698;10.078;2023-01-16T08:16:33;98736.44;;;6.29;100.00
15487;BME280;7845;53.698;10.078;2023-01-16T08:18:59;98721.91;;;6.24;100.00
15487;BME280;7845;53.698;10.078;2023-01-16T08:21:24;98727.94;;;6.23;100.00
15487;BME280;7845;53.698;10.078;2023-01-16T08:23:53;98735.84;;;6.18;100.00
15487;BME280;7845;53.698;10.078;2023-01-16T08:26:22;98730.66;;;6.18;100.00
15487;BME280;7845;53.698;10.078;2023-01-16T08:28:48;98732.34;;;6.19;100.00
15487;BME280;7845;53.698;10.078;2023-01-16T08:31:14;98728.09;;;6.17;100.00
15487;BME280;7845;53.698;10.078;2023-01-16T08:33:42;98726.38;;;6.16;100.00
15487;BME280;7845;53.698;10.078;2023-01-16T08:36:10;98725.44;;;6.20;100.00
15487;BME280;7845;53.698;10.078;2023-01-16T08:38:36;98719.31;;;6.24;100.00
15487;BME280;7845;53.698;10.078;2023-01-16T08:41:02;98706.38;;;6.22;100.00
15487;BME280;7845;53.698;10.078;2023-01-16T08:43:27;98711.59;;;6.21;100.00
15487;BME280;7845;53.698;10.078;2023-01-16T08:46:19;98708.88;;;6.27;100.00
15487;BME280;7845;53.698;10.078;2023-01-16T08:49:04;98708.75;;;6.31;100.00
15487;BME280;7845;53.698;10.078;2023-01-16T08:51:52;98699.03;;;6.41;100.00
15487;BME280;7845;53.698;10.078;2023-01-16T08:54:18;98697.22;;;6.43;100.00
15487;BME280;7845;53.698;10.078;2023-01-16T08:56:43;98695.50;;;6.43;100.00
15487;BME280;7845;53.698;10.078;2023-01-16T08:59:09;98696.44;;;6.41;100.00
15487;BME280;7845;53.698;10.078;2023-01-16T09:01:36;98688.81;;;6.35;100.00
15487;BME280;7845;53.698;10.078;2023-01-16T09:04:03;98684.34;;;6.40;100.00
15487;BME280;7845;53.698;10.078;2023-01-16T09:06:28;98685.13;;;6.43;100.00
15487;BME280;7845;53.698;10.078;2023-01-16T09:08:54;98677.28;;;6.46;100.00
15487;BME280;7845;53.698;10.078;2023-01-16T09:11:22;98669.44;;;6.49;100.00
15487;BME280;7845;53.698;10.078;2023-01-16T09:14:06;98669.28;;;6.55;100.00
15487;BME280;7845;53.698;10.078;2023-01-16T09:16:32;98667.38;;;6.62;100.00
15487;BME280;7845;53.698;10.078;2023-01-16T09:18:57;98657.75;;;6.67;100.00
15487;BME280;7845;53.698;10.078;2023-01-16T09:21:23;98656.84;;;6.68;100.00
15487;BME280;7845;53.698;10.078;2023-01-16T09:23:50;98663.66;;;6.72;100.00
15487;BME280;7845;53.698;10.078;2023-01-16T09:26:16;98656.78;;;6.71;100.00
15487;BME280;7845;53.698;10.078;2023-01-16T09:28:41;98649.09;;;6.68;100.00
15487;BME280;7845;53.698;10.078;2023-01-16T09:31:07;98644.78;;;6.67;100.00
15487;BME280;7845;53.698;10.078;2023-01-16T09:33:32;98639.69;;;6.64;100.00
15487;BME280;7845;53.698;10.078;2023-01-16T09:35:57;98630.09;;;6.67;100.00
15487;BME280;7845;53.698;10.078;2023-01-16T09:38:23;98631.97;;;6.62;100.00
15487;BME280;7845;53.698;10.078;2023-01-16T09:40:55;98626.78;;;6.62;100.00
15487;BME280;7845;53.698;10.078;2023-01-16T09:43:39;98625.06;;;6.61;100.00
15487;BME280;7845;53.698;10.078;2023-01-16T09:46:14;98621.53;;;6.64;100.00
15487;BME280;7845;53.698;10.078;2023-01-16T09:48:53;98624.13;;;6.64;100.00
15487;BME280;7845;53.698;10.078;2023-01-16T09:51:26;98618.94;;;6.64;100.00
15487;BME280;7845;53.698;10.078;2023-01-16T09:54:03;98619.72;;;6.67;100.00
15487;BME280;7845;53.698;10.078;2023-01-16T09:56:55;98606.66;;;6.71;100.00
15487;BME280;7845;53.698;10.078;2023-01-16T09:59:43;98606.69;;;6.69;100.00
15487;BME280;7845;53.698;10.078;2023-01-16T10:02:24;98601.41;;;6.74;100.00
15487;BME280;7845;53.698;10.078;2023-01-16T10:04:51;98598.59;;;6.81;100.00
15487;BME280;7845;53.698;10.078;2023-01-16T10:07:55;98594.25;;;6.82;100.00
15487;BME280;7845;53.698;10.078;2023-01-16T10:10:43;98587.25;;;6.85;100.00
15487;BME280;7845;53.698;10.078;2023-01-16T10:19:10;98589.31;;;7.03;100.00
15487;BME280;7845;53.698;10.078;2023-01-16T10:27:19;98565.84;;;7.37;100.00
15487;BME280;7845;53.698;10.078;2023-01-16T10:29:56;98558.69;;;7.44;100.00
15487;BME280;7845;53.698;10.078;2023-01-16T10:32:33;98555.22;;;7.45;100.00
15487;BME280;7845;53.698;10.078;2023-01-16T10:37:36;98567.81;;;7.57;100.00
15487;BME280;7845;53.698;10.078;2023-01-16T10:40:19;98554.03;;;7.55;100.00
15487;BME280;7845;53.698;10.078;2023-01-16T10:42:51;98542.63;;;7.59;100.00
15487;BME280;7845;53.698;10.078;2023-01-16T10:45:38;98539.94;;;7.62;100.00
15487;BME280;7845;53.698;10.078;2023-01-16T10:48:26;98532.81;;;7.68;100.00
15487;BME280;7845;53.698;10.078;2023-01-16T10:51:11;98522.19;;;7.76;100.00
15487;BME280;7845;53.698;10.078;2023-01-16T10:53:38;98526.34;;;7.82;100.00
15487;BME280;7845;53.698;10.078;2023-01-16T10:56:04;98518.59;;;7.80;100.00
15487;BME280;7845;53.698;10.078;2023-01-16T10:58:36;98517.63;;;7.82;100.00
15487;BME280;7845;53.698;10.078;2023-01-16T11:01:10;98502.91;;;7.83;100.00
15487;BME280;7845;53.698;10.078;2023-01-16T11:06:27;98485.38;;;7.90;100.00
15487;BME280;7845;53.698;10.078;2023-01-16T11:09:02;98487.97;;;7.90;100.00
15487;BME280;7845;53.698;10.078;2023-01-16T11:11:29;98477.47;;;7.93;100.00
15487;BME280;7845;53.698;10.078;2023-01-16T11:14:34;98474.84;;;7.94;100.00
15487;BME280;7845;53.698;10.078;2023-01-16T11:17:34;98464.69;;;7.87;100.00
15487;BME280;7845;53.698;10.078;2023-01-16T11:20:27;98452.78;;;7.81;100.00
15487;BME280;7845;53.698;10.078;2023-01-16T11:23:19;98433.00;;;7.77;100.00
15487;BME280;7845;53.698;10.078;2023-01-16T11:25:47;98430.38;;;7.78;100.00
15487;BME280;7845;53.698;10.078;2023-01-16T11:28:19;98418.13;;;7.82;100.00
15487;BME280;7845;53.698;10.078;2023-01-16T11:30:46;98414.50;;;7.86;100.00
15487;BME280;7845;53.698;10.078;2023-01-16T11:33:15;98405.03;;;7.85;100.00
15487;BME280;7845;53.698;10.078;2023-01-16T11:35:57;98395.75;;;7.78;100.00
15487;BME280;7845;53.698;10.078;2023-01-16T11:38:26;98388.75;;;7.80;100.00
15487;BME280;7845;53.698;10.078;2023-01-16T11:40:55;98384.53;;;7.77;100.00
15487;BME280;7845;53.698;10.078;2023-01-16T11:43:24;98378.69;;;7.71;100.00
15487;BME280;7845;53.698;10.078;2023-01-16T11:46:30;98363.19;;;7.69;100.00
15487;BME280;7845;53.698;10.078;2023-01-16T11:49:02;98350.94;;;7.73;100.00
15487;BME280;7845;53.698;10.078;2023-01-16T11:51:31;98342.44;;;7.68;100.00
15487;BME280;7845;53.698;10.078;2023-01-16T11:53:58;98335.91;;;7.58;100.00
15487;BME280;7845;53.698;10.078;2023-01-16T11:56:47;98327.91;;;7.64;100.00
15487;BME280;7845;53.698;10.078;2023-01-16T11:59:51;98320.03;;;7.65;100.00
15487;BME280;7845;53.698;10.078;2023-01-16T12:05:09;98302.47;;;7.73;100.00
15487;BME280;7845;53.698;10.078;2023-01-16T12:11:06;98286.63;;;7.79;100.00
15487;BME280;7845;53.698;10.078;2023-01-16T12:13:49;98269.31;;;7.80;100.00
15487;BME280;7845;53.698;10.078;2023-01-16T12:17:00;98261.03;;;7.70;100.00
15487;BME280;7845;53.698;10.078;2023-01-16T12:19:47;98250.53;;;7.73;100.00
15487;BME280;7845;53.698;10.078;2023-01-16T12:22:41;98245.09;;;7.79;100.00
15487;BME280;7845;53.698;10.078;2023-01-16T12:39:31;98195.50;;;7.64;100.00
15487;BME280;7845;53.698;10.078;2023-01-16T12:42:15;98194.47;;;7.68;100.00
15487;BME280;7845;53.698;10.078;2023-01-16T12:47:59;98179.00;;;7.65;100.00
15487;BME280;7845;53.698;10.078;2023-01-16T12:51:02;98172.88;;;7.67;100.00
15487;BME280;7845;53.698;10.078;2023-01-16T12:53:40;98166.00;;;7.66;100.00
15487;BME280;7845;53.698;10.078;2023-01-16T12:56:38;98156.56;;;7.64;100.00
15487;BME280;7845;53.698;10.078;2023-01-16T12:59:14;98142.44;;;7.71;100.00
15487;BME280;7845;53.698;10.078;2023-01-16T13:01:43;98138.31;;;7.65;100.00
15487;BME280;7845;53.698;10.078;2023-01-16T13:04:19;98136.53;;;7.67;100.00
15487;BME280;7845;53.698;10.078;2023-01-16T13:07:14;98125.53;;;7.61;100.00
15487;BME280;7845;53.698;10.078;2023-01-16T13:09:51;98121.00;;;7.66;100.00
15487;BME280;7845;53.698;10.078;2023-01-16T13:12:39;98116.59;;;7.68;100.00
15487;BME280;7845;53.698;10.078;2023-01-16T13:15:27;98113.63;;;7.77;100.00
15487;BME280;7845;53.698;10.078;2023-01-16T13:18:04;98108.16;;;7.63;100.00
15487;BME280;7845;53.698;10.078;2023-01-16T13:20:33;98108.03;;;7.66;100.00
15487;BME280;7845;53.698;10.078;2023-01-16T13:23:03;98102.06;;;7.64;100.00
15487;BME280;7845;53.698;10.078;2023-01-16T13:25:33;98098.38;;;7.69;100.00
15487;BME280;7845;53.698;10.078;2023-01-16T13:28:17;98107.91;;;7.69;100.00
15487;BME280;7845;53.698;10.078;2023-01-16T13:30:45;98111.16;;;7.74;100.00
15487;BME280;7845;53.698;10.078;2023-01-16T13:33:15;98096.91;;;7.62;100.00
15487;BME280;7845;53.698;10.078;2023-01-16T13:35:50;98095.78;;;7.69;100.00
15487;BME280;7845;53.698;10.078;2023-01-16T13:44:16;98089.47;;;7.53;100.00
15487;BME280;7845;53.698;10.078;2023-01-16T13:47:08;98075.78;;;7.50;100.00
15487;BME280;7845;53.698;10.078;2023-01-16T13:49:35;98072.91;;;7.57;100.00
15487;BME280;7845;53.698;10.078;2023-01-16T13:52:02;98070.34;;;7.56;100.00
15487;BME280;7845;53.698;10.078;2023-01-16T13:54:41;98068.06;;;7.48;100.00
15487;BME280;7845;53.698;10.078;2023-01-16T13:57:15;98058.28;;;7.55;100.00
15487;BME280;7845;53.698;10.078;2023-01-16T13:59:47;98066.09;;;7.55;100.00
15487;BME280;7845;53.698;10.078;2023-01-16T14:11:02;98031.91;;;7.44;100.00
15487;BME280;7845;53.698;10.078;2023-01-16T14:13:34;98030.84;;;7.49;100.00
15487;BME280;7845;53.698;10.078;2023-01-16T14:21:41;98025.81;;;7.45;100.00
15487;BME280;7845;53.698;10.078;2023-01-16T14:24:28;98027.91;;;7.35;100.00
15487;BME280;7845;53.698;10.078;2023-01-16T14:26:58;98019.44;;;7.32;100.00
15487;BME280;7845;53.698;10.078;2023-01-16T14:29:32;98017.84;;;7.28;100.00
15487;BME280;7845;53.698;10.078;2023-01-16T14:34:38;98008.19;;;7.31;100.00
15487;BME280;7845;53.698;10.078;2023-01-16T14:37:29;98003.41;;;7.20;100.00
15487;BME280;7845;53.698;10.078;2023-01-16T14:39:58;98012.78;;;7.24;100.00
15487;BME280;7845;53.698;10.078;2023-01-16T14:42:40;98004.25;;;7.21;100.00
15487;BME280;7845;53.698;10.078;2023-01-16T14:45:30;98002.53;;;7.21;100.00
15487;BME280;7845;53.698;10.078;2023-01-16T14:48:31;97999.19;;;7.18;100.00
15487;BME280;7845;53.698;10.078;2023-01-16T14:51:28;97991.38;;;7.19;100.00
15487;BME280;7845;53.698;10.078;2023-01-16T14:54:31;97987.72;;;7.23;100.00
15487;BME280;7845;53.698;10.078;2023-01-16T14:57:18;97987.19;;;7.15;100.00
15487;BME280;7845;53.698;10.078;2023-01-16T14:59:51;97977.59;;;7.17;100.00
15487;BME280;7845;53.698;10.078;2023-01-16T15:02:31;97976.81;;;7.15;100.00
15487;BME280;7845;53.698;10.078;2023-01-16T15:05:08;97964.72;;;7.16;100.00
15487;BME280;7845;53.698;10.078;2023-01-16T15:07:39;97963.97;;;7.12;100.00
15487;BME280;7845;53.698;10.078;2023-01-16T15:10:23;97960.66;;;7.09;100.00
15487;BME280;7845;53.698;10.078;2023-01-16T15:12:52;97948.88;;;7.00;100.00
15487;BME280;7845;53.698;10.078;2023-01-16T15:15:29;97943.81;;;6.97;100.00